Time;durP1;ratioP1;P1;durP2;ratioP2;P2;SDS_P1;SDS_P2;PMS_P1;PMS_P2;Temp;Humidity;BMP_temperature;BMP_pressure;BME280_temperature;BME280_humidity;BME280_pressure;Samples;Min_cycle;Max_cycle;Signal;HPM_P1;HPM_P2
2022/10/10 00:01:17;;;;;;;;;;;19.90;63.50;;;;;;5094239;28;19966;-67
2022/10/10 00:03:43;;;;;;;;;;;19.90;63.50;;;;;;5094873;28;19931;-66
2022/10/10 00:06:08;;;;;;;;;;;19.90;63.50;;;;;;5111371;28;20300;-67
2022/10/10 00:08:34;;;;;;;;;;;19.90;63.40;;;;;;5112834;28;19935;-67
2022/10/10 00:11:00;;;;;;;;;;;19.90;63.40;;;;;;5111840;28;20409;-67
2022/10/10 00:13:25;;;;;;;;;;;19.90;63.40;;;;;;5112528;28;19980;-67
2022/10/10 00:15:51;;;;;;;;;;;19.90;63.40;;;;;;5112729;28;19984;-67
2022/10/10 00:18:16;;;;;;;;;;;19.80;63.30;;;;;;5093707;28;19920;-67
2022/10/10 00:20:41;;;;;;;;;;;19.80;63.30;;;;;;5112920;28;20291;-67
2022/10/10 00:23:07;;;;;;;;;;;19.80;63.30;;;;;;5112396;28;19920;-67
2022/10/10 00:25:32;;;;;;;;;;;19.80;63.30;;;;;;5093725;28;20064;-67
2022/10/10 00:28:01;;;;;;;;;;;19.80;63.30;;;;;;5112665;28;19931;-67
2022/10/10 00:30:27;;;;;;;;;;;19.80;63.20;;;;;;5112671;28;19924;-66
2022/10/10 00:32:52;;;;;;;;;;;19.80;63.20;;;;;;5111627;28;19928;-67
2022/10/10 00:35:18;;;;;;;;;;;19.80;63.20;;;;;;5094393;28;19931;-67
2022/10/10 00:37:43;;;;;;;;;;;19.80;63.20;;;;;;5094196;28;20321;-67
2022/10/10 00:40:09;;;;;;;;;;;19.80;63.20;;;;;;5094033;28;19931;-67
2022/10/10 00:42:34;;;;;;;;;;;19.80;63.20;;;;;;5081136;28;19996;-67
2022/10/10 00:45:18;;;;;;;;;;;19.80;63.20;;;;;;5116283;28;20391;-67
2022/10/10 00:47:44;;;;;;;;;;;19.80;63.10;;;;;;5115739;28;19924;-67
2022/10/10 00:50:09;;;;;;;;;;;19.80;63.10;;;;;;5115657;28;19923;-67
2022/10/10 00:52:35;;;;;;;;;;;19.70;63.00;;;;;;5116034;28;19928;-67
2022/10/10 00:55:00;;;;;;;;;;;19.70;63.10;;;;;;5097064;28;20279;-66
2022/10/10 00:57:25;;;;;;;;;;;19.70;63.00;;;;;;5080813;28;20016;-67
2022/10/10 00:59:52;;;;;;;;;;;19.70;63.00;;;;;;5115945;28;20397;-67
2022/10/10 01:02:18;;;;;;;;;;;19.70;63.00;;;;;;5096725;28;19924;-67
2022/10/10 01:04:43;;;;;;;;;;;19.70;63.00;;;;;;5097434;28;19930;-66
2022/10/10 01:07:13;;;;;;;;;;;19.70;63.00;;;;;;5096867;28;19931;-67
2022/10/10 01:09:39;;;;;;;;;;;19.70;63.00;;;;;;5115810;28;19924;-66
2022/10/10 01:12:11;;;;;;;;;;;19.70;63.00;;;;;;5080356;28;20447;-66
2022/10/10 01:14:42;;;;;;;;;;;19.70;63.00;;;;;;5115007;28;19970;-67
2022/10/10 01:17:11;;;;;;;;;;;19.70;63.00;;;;;;5097034;28;20340;-67
2022/10/10 01:19:43;;;;;;;;;;;19.70;63.00;;;;;;5097095;28;20260;-66
2022/10/10 01:22:31;;;;;;;;;;;19.70;63.00;;;;;;5112622;28;20293;-66
2022/10/10 01:25:15;;;;;;;;;;;19.70;63.00;;;;;;5114139;28;19928;-67
2022/10/10 01:27:41;;;;;;;;;;;19.60;63.00;;;;;;5097179;28;19924;-67
2022/10/10 01:30:11;;;;;;;;;;;19.60;62.90;;;;;;5096227;28;20007;-67
2022/10/10 01:32:36;;;;;;;;;;;19.70;62.90;;;;;;5093095;28;19931;-66
2022/10/10 01:35:05;;;;;;;;;;;19.60;62.90;;;;;;5095149;28;20002;-66
2022/10/10 01:37:57;;;;;;;;;;;19.60;62.90;;;;;;5092811;28;19924;-66
2022/10/10 01:40:23;;;;;;;;;;;19.60;62.80;;;;;;5089181;28;19960;-66
2022/10/10 01:42:55;;;;;;;;;;;19.60;62.90;;;;;;5092590;28;19994;-66
2022/10/10 01:45:21;;;;;;;;;;;19.60;62.80;;;;;;5094256;28;19978;-66
2022/10/10 01:47:46;;;;;;;;;;;19.60;62.80;;;;;;5093579;28;19960;-66
2022/10/10 01:50:14;;;;;;;;;;;19.60;62.80;;;;;;5092314;28;20356;-66
2022/10/10 01:52:45;;;;;;;;;;;19.60;62.80;;;;;;5093230;28;20012;-66
2022/10/10 01:55:14;;;;;;;;;;;19.60;63.00;;;;;;5092465;28;19947;-66
2022/10/10 01:57:59;;;;;;;;;;;19.60;62.80;;;;;;5093812;28;20026;-66
2022/10/10 02:00:25;;;;;;;;;;;19.60;62.80;;;;;;5078330;28;19993;-66
2022/10/10 02:02:59;;;;;;;;;;;19.60;62.80;;;;;;5092698;28;19924;-66
2022/10/10 02:05:26;;;;;;;;;;;19.60;62.70;;;;;;5074646;28;20339;-66
2022/10/10 02:07:56;;;;;;;;;;;19.60;62.70;;;;;;5093061;28;19978;-67
2022/10/10 02:10:23;;;;;;;;;;;19.50;62.70;;;;;;5092641;28;19931;-66
2022/10/10 02:12:49;;;;;;;;;;;19.50;62.70;;;;;;5075360;28;19931;-67
2022/10/10 02:15:15;;;;;;;;;;;19.50;62.70;;;;;;5092387;28;19931;-67
2022/10/10 02:17:42;;;;;;;;;;;19.50;62.60;;;;;;5092034;28;19920;-67
2022/10/10 02:20:07;;;;;;;;;;;19.50;62.60;;;;;;5093506;28;20019;-67
2022/10/10 02:22:33;;;;;;;;;;;19.50;62.60;;;;;;5092646;28;20410;-67
2022/10/10 02:24:58;;;;;;;;;;;19.50;62.60;;;;;;5074747;28;19966;-67
2022/10/10 02:27:30;;;;;;;;;;;19.50;62.60;;;;;;5092578;28;19928;-66
2022/10/10 02:29:55;;;;;;;;;;;19.50;62.60;;;;;;5092330;28;19920;-66
2022/10/10 02:32:35;;;;;;;;;;;19.50;62.60;;;;;;5077229;28;19931;-68
2022/10/10 02:35:05;;;;;;;;;;;19.50;62.60;;;;;;5095991;28;19924;-67
2022/10/10 02:37:31;;;;;;;;;;;19.50;62.60;;;;;;5095715;28;20272;-67
2022/10/10 02:39:57;;;;;;;;;;;19.50;62.50;;;;;;5078008;28;20382;-66
2022/10/10 02:42:22;;;;;;;;;;;19.50;62.50;;;;;;5095574;28;19924;-67
2022/10/10 02:44:48;;;;;;;;;;;19.50;62.60;;;;;;5078767;28;19924;-67
2022/10/10 02:47:13;;;;;;;;;;;19.50;62.50;;;;;;5094487;28;20382;-67
2022/10/10 02:49:39;;;;;;;;;;;19.50;62.50;;;;;;5113681;28;20034;-67
2022/10/10 02:52:05;;;;;;;;;;;19.50;62.50;;;;;;5095622;28;19934;-67
2022/10/10 02:54:30;;;;;;;;;;;19.50;62.50;;;;;;5112881;28;19923;-67
2022/10/10 02:56:56;;;;;;;;;;;19.50;62.50;;;;;;5113608;28;19928;-68
2022/10/10 02:59:21;;;;;;;;;;;19.50;62.50;;;;;;5113471;28;20023;-67
2022/10/10 03:01:47;;;;;;;;;;;19.50;62.50;;;;;;5112995;28;19923;-67
2022/10/10 03:04:12;;;;;;;;;;;19.40;62.40;;;;;;5094827;28;19924;-67
2022/10/10 03:06:38;;;;;;;;;;;19.40;62.40;;;;;;5095402;28;20367;-66
2022/10/10 03:09:03;;;;;;;;;;;19.40;62.40;;;;;;5094803;28;19923;-67
2022/10/10 03:11:29;;;;;;;;;;;19.40;62.40;;;;;;5128966;27;20302;-67
2022/10/10 03:13:54;;;;;;;;;;;19.40;62.40;;;;;;5094220;28;19961;-66
2022/10/10 03:16:20;;;;;;;;;;;19.40;62.40;;;;;;5113125;28;19923;-67
2022/10/10 03:18:45;;;;;;;;;;;19.40;63.00;;;;;;5113135;28;19919;-66
2022/10/10 03:21:11;;;;;;;;;;;19.40;62.40;;;;;;5112360;28;20259;-66
2022/10/10 03:23:36;;;;;;;;;;;19.40;62.40;;;;;;5113529;28;19923;-66
2022/10/10 03:26:02;;;;;;;;;;;19.40;62.40;;;;;;5113382;28;19920;-66
2022/10/10 03:28:28;;;;;;;;;;;19.40;62.30;;;;;;5128160;27;19924;-67
2022/10/10 03:30:53;;;;;;;;;;;19.40;62.40;;;;;;5113064;28;19928;-66
2022/10/10 03:33:19;;;;;;;;;;;19.50;62.40;;;;;;5094354;28;20053;-66
2022/10/10 03:35:44;;;;;;;;;;;19.50;62.30;;;;;;5112585;28;20014;-66
2022/10/10 03:38:10;;;;;;;;;;;19.50;62.40;;;;;;5113334;28;20328;-67
2022/10/10 03:40:37;;;;;;;;;;;19.50;62.30;;;;;;5095063;28;19924;-67
2022/10/10 03:43:03;;;;;;;;;;;19.50;62.30;;;;;;5128538;27;19923;-67
2022/10/10 03:45:28;;;;;;;;;;;19.50;62.30;;;;;;5112696;28;20014;-67
2022/10/10 03:47:54;;;;;;;;;;;19.50;62.30;;;;;;5094595;28;19924;-67
2022/10/10 03:50:19;;;;;;;;;;;19.50;62.20;;;;;;5112146;28;19955;-66
2022/10/10 03:52:44;;;;;;;;;;;19.50;62.30;;;;;;5094687;28;20293;-66
2022/10/10 03:55:10;;;;;;;;;;;19.50;62.20;;;;;;5113023;28;19928;-66
2022/10/10 03:57:35;;;;;;;;;;;19.50;62.20;;;;;;5111999;28;20348;-67
2022/10/10 04:00:01;;;;;;;;;;;19.50;62.20;;;;;;5112919;28;20033;-67
2022/10/10 04:02:26;;;;;;;;;;;19.50;62.20;;;;;;5093993;28;19973;-67
2022/10/10 04:04:52;;;;;;;;;;;19.50;62.20;;;;;;5092821;28;19954;-67
2022/10/10 04:07:17;;;;;;;;;;;19.60;62.30;;;;;;5111929;28;19976;-67
2022/10/10 04:09:43;;;;;;;;;;;19.60;62.20;;;;;;5112671;28;19920;-67
2022/10/10 04:12:08;;;;;;;;;;;19.60;62.20;;;;;;5093644;28;19976;-66
2022/10/10 04:14:34;;;;;;;;;;;19.60;62.20;;;;;;5112828;28;19924;-67
2022/10/10 04:16:59;;;;;;;;;;;19.60;62.20;;;;;;5116648;28;19924;-67
2022/10/10 04:19:25;;;;;;;;;;;19.60;62.20;;;;;;5097475;28;19963;-67
2022/10/10 04:21:50;;;;;;;;;;;19.60;62.10;;;;;;5117123;28;19923;-67
2022/10/10 04:24:16;;;;;;;;;;;19.60;62.10;;;;;;5097108;28;20525;-66
2022/10/10 04:26:41;;;;;;;;;;;19.70;62.20;;;;;;5116617;28;19931;-66
2022/10/10 04:29:07;;;;;;;;;;;19.70;62.10;;;;;;5116248;28;20018;-66
2022/10/10 04:31:33;;;;;;;;;;;19.70;62.10;;;;;;5115824;28;19968;-67
2022/10/10 04:33:58;;;;;;;;;;;19.70;62.10;;;;;;5116242;28;19924;-68
2022/10/10 04:36:24;;;;;;;;;;;19.70;62.10;;;;;;5097950;28;19934;-66
2022/10/10 04:38:49;;;;;;;;;;;19.70;62.00;;;;;;5097314;28;19977;-66
2022/10/10 04:41:15;;;;;;;;;;;19.70;62.10;;;;;;5098289;28;19963;-66
2022/10/10 04:43:40;;;;;;;;;;;19.70;62.00;;;;;;5099556;28;20286;-66
2022/10/10 04:46:06;;;;;;;;;;;19.70;62.00;;;;;;5099924;28;19928;-66
2022/10/10 04:48:31;;;;;;;;;;;19.70;62.00;;;;;;5116600;28;19923;-67
2022/10/10 04:50:57;;;;;;;;;;;19.70;62.00;;;;;;5098005;28;19935;-67
2022/10/10 04:53:23;;;;;;;;;;;19.80;62.00;;;;;;5115086;28;20366;-66
2022/10/10 04:55:48;;;;;;;;;;;19.80;62.00;;;;;;5115789;28;19924;-66
2022/10/10 04:58:14;;;;;;;;;;;19.80;62.00;;;;;;5097735;28;20088;-67
2022/10/10 05:00:39;;;;;;;;;;;19.80;62.00;;;;;;5115027;28;20332;-66
2022/10/10 05:03:05;;;;;;;;;;;19.80;61.90;;;;;;5115658;28;19934;-66
2022/10/10 05:05:31;;;;;;;;;;;19.80;61.90;;;;;;5116035;28;19923;-66
2022/10/10 05:07:56;;;;;;;;;;;19.80;61.90;;;;;;5114940;28;20029;-67
2022/10/10 05:10:22;;;;;;;;;;;19.80;61.80;;;;;;5115502;28;20022;-66
2022/10/10 05:12:47;;;;;;;;;;;19.80;61.90;;;;;;5115571;28;19923;-66
2022/10/10 05:15:13;;;;;;;;;;;19.80;61.80;;;;;;5096410;28;19931;-67
2022/10/10 05:17:39;;;;;;;;;;;19.80;61.80;;;;;;5115546;28;19924;-66
2022/10/10 05:20:04;;;;;;;;;;;19.90;61.90;;;;;;5115794;28;19932;-66
2022/10/10 05:22:30;;;;;;;;;;;19.90;61.90;;;;;;5114514;28;20034;-66
2022/10/10 05:24:57;;;;;;;;;;;19.90;61.80;;;;;;5115441;28;19981;-66
2022/10/10 05:27:23;;;;;;;;;;;19.90;61.80;;;;;;5114651;28;20425;-66
2022/10/10 05:29:48;;;;;;;;;;;19.90;61.90;;;;;;5096407;28;20291;-66
2022/10/10 05:32:14;;;;;;;;;;;19.90;61.80;;;;;;5114784;28;19980;-66
2022/10/10 05:34:39;;;;;;;;;;;19.90;61.80;;;;;;5114580;28;19923;-66
2022/10/10 05:37:05;;;;;;;;;;;19.90;61.80;;;;;;5096825;28;19928;-67
2022/10/10 05:39:30;;;;;;;;;;;19.90;61.80;;;;;;5115105;28;20030;-67
2022/10/10 05:41:56;;;;;;;;;;;19.90;61.70;;;;;;5114689;28;19949;-67
2022/10/10 05:44:21;;;;;;;;;;;19.90;61.80;;;;;;5096473;28;20334;-66
2022/10/10 05:46:47;;;;;;;;;;;19.90;61.70;;;;;;5096666;28;19928;-66
2022/10/10 05:49:13;;;;;;;;;;;19.90;61.70;;;;;;5095935;28;19923;-66
2022/10/10 05:51:38;;;;;;;;;;;19.90;61.70;;;;;;5114953;28;19931;-65
2022/10/10 05:54:04;;;;;;;;;;;19.90;61.70;;;;;;5115021;28;20298;-67
2022/10/10 05:56:29;;;;;;;;;;;19.90;61.70;;;;;;5113864;28;20022;-67
2022/10/10 05:58:55;;;;;;;;;;;20.00;61.70;;;;;;5096285;28;20409;-66
2022/10/10 06:01:20;;;;;;;;;;;19.90;61.70;;;;;;5114247;28;19924;-66
2022/10/10 06:03:51;;;;;;;;;;;20.00;61.70;;;;;;5095699;28;19924;-66
2022/10/10 06:06:17;;;;;;;;;;;20.00;61.70;;;;;;5114269;28;19920;-66
2022/10/10 06:08:42;;;;;;;;;;;20.00;61.80;;;;;;5114663;28;19924;-66
2022/10/10 06:11:09;;;;;;;;;;;20.00;61.80;;;;;;5113728;28;19975;-64
2022/10/10 06:13:36;;;;;;;;;;;20.00;61.80;;;;;;5114389;28;19975;-66
2022/10/10 06:16:01;;;;;;;;;;;20.00;61.90;;;;;;5130492;27;19928;-66
2022/10/10 06:18:27;;;;;;;;;;;20.00;62.00;;;;;;5113491;28;20329;-67
2022/10/10 06:20:52;;;;;;;;;;;20.00;62.00;;;;;;5114307;28;20023;-66
2022/10/10 06:23:19;;;;;;;;;;;20.00;62.10;;;;;;5113120;28;19967;-68
2022/10/10 06:25:44;;;;;;;;;;;20.10;62.30;;;;;;5094527;28;19973;-67
2022/10/10 06:28:10;;;;;;;;;;;20.00;62.30;;;;;;5095321;28;19924;-68
2022/10/10 06:30:40;;;;;;;;;;;20.10;62.40;;;;;;5114261;28;19980;-66
2022/10/10 06:33:06;;;;;;;;;;;20.10;62.40;;;;;;5113180;28;19927;-67
2022/10/10 06:35:31;;;;;;;;;;;20.10;62.50;;;;;;5114102;28;19969;-67
2022/10/10 06:37:57;;;;;;;;;;;20.10;62.50;;;;;;5112425;28;19923;-67
2022/10/10 06:40:22;;;;;;;;;;;20.10;62.50;;;;;;5095400;28;20469;-68
2022/10/10 06:42:48;;;;;;;;;;;20.10;62.50;;;;;;5095174;28;19924;-67
2022/10/10 06:45:13;;;;;;;;;;;20.20;62.60;;;;;;5112935;28;19991;-67
2022/10/10 06:47:40;;;;;;;;;;;20.20;62.50;;;;;;5113876;28;19931;-66
2022/10/10 06:50:06;;;;;;;;;;;20.20;62.50;;;;;;5113704;28;19923;-66
2022/10/10 06:52:31;;;;;;;;;;;20.20;62.50;;;;;;5094987;28;19924;-66
2022/10/10 06:54:57;;;;;;;;;;;20.20;62.50;;;;;;5113508;28;19928;-65
2022/10/10 06:57:22;;;;;;;;;;;20.20;62.40;;;;;;5112868;28;19969;-66
2022/10/10 06:59:48;;;;;;;;;;;20.20;62.50;;;;;;5112831;28;20286;-66
2022/10/10 07:02:13;;;;;;;;;;;20.20;62.50;;;;;;5094947;28;19923;-67
2022/10/10 07:04:39;;;;;;;;;;;20.20;62.40;;;;;;5113510;28;19924;-70
2022/10/10 07:07:04;;;;;;;;;;;20.20;62.30;;;;;;5112968;28;19924;-66
2022/10/10 07:09:30;;;;;;;;;;;20.30;62.30;;;;;;5112876;28;19923;-65
2022/10/10 07:11:55;;;;;;;;;;;20.30;62.40;;;;;;5113589;28;20403;-66
2022/10/10 07:14:21;;;;;;;;;;;20.20;62.20;;;;;;5093945;28;19928;-66
2022/10/10 07:16:46;;;;;;;;;;;20.30;62.40;;;;;;5095259;28;19923;-67
2022/10/10 07:19:12;;;;;;;;;;;20.30;62.30;;;;;;5113049;28;20267;-66
2022/10/10 07:21:37;;;;;;;;;;;20.30;62.30;;;;;;5112588;28;19978;-67
2022/10/10 07:24:03;;;;;;;;;;;20.30;62.40;;;;;;5094810;28;20363;-67
2022/10/10 07:26:30;;;;;;;;;;;20.30;62.40;;;;;;5112746;28;19931;-67
2022/10/10 07:28:56;;;;;;;;;;;20.40;62.40;;;;;;5105396;28;20402;-65
2022/10/10 07:31:21;;;;;;;;;;;20.30;62.40;;;;;;5094082;28;19947;-66
2022/10/10 07:33:47;;;;;;;;;;;20.30;62.40;;;;;;5103540;28;20271;-67
2022/10/10 07:36:12;;;;;;;;;;;20.40;62.50;;;;;;5107360;28;20033;-67
2022/10/10 07:38:38;;;;;;;;;;;20.40;62.50;;;;;;5099797;28;19930;-63
2022/10/10 07:41:07;;;;;;;;;;;20.40;62.40;;;;;;5111257;28;19924;-61
2022/10/10 07:43:33;;;;;;;;;;;20.40;62.40;;;;;;5112714;28;20018;-62
2022/10/10 07:45:58;;;;;;;;;;;20.40;62.40;;;;;;5111982;28;19967;-62
2022/10/10 07:48:24;;;;;;;;;;;20.50;62.50;;;;;;5111499;28;19930;-62
2022/10/10 07:50:49;;;;;;;;;;;20.40;62.40;;;;;;5098643;28;20032;-59
2022/10/10 07:53:15;;;;;;;;;;;20.50;62.40;;;;;;5116680;28;19928;-60
2022/10/10 07:55:41;;;;;;;;;;;20.50;62.40;;;;;;5116021;28;19969;-61
2022/10/10 07:58:06;;;;;;;;;;;20.50;62.50;;;;;;5117004;28;20023;-63
2022/10/10 08:00:34;;;;;;;;;;;20.50;62.60;;;;;;5116978;28;20026;-63
2022/10/10 08:02:59;;;;;;;;;;;20.50;62.70;;;;;;5116148;28;20354;-63
2022/10/10 08:05:25;;;;;;;;;;;20.50;62.60;;;;;;5115813;28;19983;-61
2022/10/10 08:07:50;;;;;;;;;;;20.60;62.70;;;;;;5116450;28;20040;-61
2022/10/10 08:10:16;;;;;;;;;;;20.60;62.80;;;;;;5114976;28;20379;-63
2022/10/10 08:12:41;;;;;;;;;;;20.60;62.90;;;;;;5097706;28;19966;-62
2022/10/10 08:15:07;;;;;;;;;;;20.60;62.80;;;;;;5115833;28;20027;-63
2022/10/10 08:17:33;;;;;;;;;;;20.60;62.80;;;;;;5097669;28;19931;-62
2022/10/10 08:19:58;;;;;;;;;;;20.60;62.70;;;;;;5116733;28;19932;-62
2022/10/10 08:22:24;;;;;;;;;;;20.60;62.70;;;;;;5116080;28;20385;-62
2022/10/10 08:24:49;;;;;;;;;;;20.60;62.60;;;;;;5096987;28;20396;-63
2022/10/10 08:27:16;;;;;;;;;;;20.60;62.70;;;;;;5115727;28;19934;-63
2022/10/10 08:29:42;;;;;;;;;;;20.60;62.90;;;;;;5098203;28;19947;-63
2022/10/10 08:32:08;;;;;;;;;;;20.60;62.90;;;;;;5115129;28;20298;-63
2022/10/10 08:34:33;;;;;;;;;;;20.70;62.90;;;;;;5116343;28;19924;-63
2022/10/10 08:36:58;;;;;;;;;;;20.70;62.90;;;;;;5116156;28;20412;-63
2022/10/10 08:39:24;;;;;;;;;;;20.70;62.90;;;;;;5114926;28;19927;-64
2022/10/10 08:41:56;;;;;;;;;;;20.70;63.00;;;;;;5115726;28;19932;-62
2022/10/10 08:44:27;;;;;;;;;;;20.70;62.90;;;;;;5115123;28;19923;-62
2022/10/10 08:46:54;;;;;;;;;;;20.70;62.90;;;;;;5116284;28;19989;-62
2022/10/10 08:49:20;;;;;;;;;;;20.70;63.00;;;;;;5097753;28;20014;-62
2022/10/10 08:51:46;;;;;;;;;;;20.70;63.00;;;;;;5115066;28;19971;-63
2022/10/10 08:54:12;;;;;;;;;;;20.70;63.00;;;;;;5115393;28;19924;-62
2022/10/10 08:56:37;;;;;;;;;;;20.70;63.10;;;;;;5097247;28;19972;-62
2022/10/10 08:59:04;;;;;;;;;;;20.70;63.10;;;;;;5096902;28;19933;-62
2022/10/10 09:01:33;;;;;;;;;;;20.70;63.20;;;;;;5096776;28;19924;-63
2022/10/10 09:03:59;;;;;;;;;;;20.70;63.10;;;;;;5097710;28;19963;-62
2022/10/10 09:06:25;;;;;;;;;;;20.70;63.20;;;;;;5096304;28;19931;-63
2022/10/10 09:08:50;;;;;;;;;;;20.70;63.20;;;;;;5115458;28;19927;-62
2022/10/10 09:11:19;;;;;;;;;;;20.70;63.20;;;;;;5115331;28;19928;-63
2022/10/10 09:13:47;;;;;;;;;;;20.70;63.30;;;;;;5114793;28;19923;-62
2022/10/10 09:16:26;;;;;;;;;;;20.60;63.30;;;;;;5097309;28;19931;-63
2022/10/10 09:18:58;;;;;;;;;;;20.60;63.30;;;;;;5096534;28;19924;-63
2022/10/10 09:21:30;;;;;;;;;;;20.60;63.30;;;;;;5113738;28;19924;-62
2022/10/10 09:23:58;;;;;;;;;;;20.70;63.20;;;;;;5076861;28;19935;-63
2022/10/10 09:26:25;;;;;;;;;;;20.60;63.30;;;;;;5076534;28;19924;-64
2022/10/10 09:28:51;;;;;;;;;;;20.60;63.40;;;;;;5076013;28;19977;-64
2022/10/10 09:31:17;;;;;;;;;;;20.70;63.60;;;;;;5094703;28;19928;-64
2022/10/10 09:33:44;;;;;;;;;;;20.60;63.40;;;;;;5093184;28;20321;-63
2022/10/10 09:36:11;;;;;;;;;;;20.70;63.40;;;;;;5075124;28;19947;-63
2022/10/10 09:38:41;;;;;;;;;;;20.60;63.30;;;;;;5108792;28;19969;-62
2022/10/10 09:41:07;;;;;;;;;;;20.60;63.30;;;;;;5111553;28;19923;-63
2022/10/10 09:43:32;;;;;;;;;;;20.60;63.30;;;;;;5114530;28;19923;-63
2022/10/10 09:45:58;;;;;;;;;;;20.60;63.30;;;;;;5114362;28;20392;-62
2022/10/10 09:48:28;;;;;;;;;;;20.60;63.30;;;;;;5114043;28;19932;-61
2022/10/10 09:50:53;;;;;;;;;;;20.60;63.30;;;;;;5115570;28;19946;-62
2022/10/10 09:53:19;;;;;;;;;;;20.50;63.20;;;;;;5114749;28;19924;-62
2022/10/10 09:55:44;;;;;;;;;;;20.50;63.30;;;;;;5114585;28;19931;-62
2022/10/10 09:58:16;;;;;;;;;;;20.50;63.30;;;;;;5114895;28;20390;-62
2022/10/10 10:00:41;;;;;;;;;;;20.50;63.30;;;;;;5114980;28;19924;-62
2022/10/10 10:03:07;;;;;;;;;;;20.50;63.40;;;;;;5113992;28;19920;-62
2022/10/10 10:05:32;;;;;;;;;;;20.50;63.30;;;;;;5115227;28;19931;-62
2022/10/10 10:07:58;;;;;;;;;;;20.50;63.30;;;;;;5115156;28;19934;-62
2022/10/10 10:10:25;;;;;;;;;;;20.60;63.40;;;;;;5113762;28;19919;-62
2022/10/10 10:12:51;;;;;;;;;;;20.60;63.40;;;;;;5095997;28;19946;-63
2022/10/10 10:15:17;;;;;;;;;;;20.50;63.40;;;;;;5113570;28;20676;-62
2022/10/10 10:17:42;;;;;;;;;;;20.60;63.40;;;;;;5114087;28;19928;-62
2022/10/10 10:20:27;;;;;;;;;;;20.50;63.30;;;;;;5114046;28;20018;-62
2022/10/10 10:22:52;;;;;;;;;;;20.60;63.30;;;;;;5113674;28;19923;-62
2022/10/10 10:25:35;;;;;;;;;;;20.50;63.30;;;;;;5114542;28;19924;-63
2022/10/10 10:28:10;;;;;;;;;;;20.60;63.30;;;;;;5114400;28;19924;-62
2022/10/10 10:30:39;;;;;;;;;;;20.50;63.30;;;;;;5113995;28;19973;-63
2022/10/10 10:33:26;;;;;;;;;;;20.60;63.40;;;;;;5092452;28;20367;-63
2022/10/10 10:36:15;;;;;;;;;;;20.50;63.30;;;;;;5093195;28;19924;-63
2022/10/10 10:38:47;;;;;;;;;;;20.50;63.30;;;;;;5082444;28;20410;-62
2022/10/10 10:41:12;;;;;;;;;;;20.60;63.30;;;;;;5093872;28;19952;-62
2022/10/10 10:43:41;;;;;;;;;;;20.50;63.30;;;;;;5094228;28;19967;-62
2022/10/10 10:46:10;;;;;;;;;;;20.50;63.20;;;;;;5092772;28;20307;-62
2022/10/10 10:48:40;;;;;;;;;;;20.50;63.30;;;;;;5092820;28;19938;-62
2022/10/10 10:51:21;;;;;;;;;;;20.50;63.30;;;;;;5092914;28;19924;-63
2022/10/10 10:54:05;;;;;;;;;;;20.50;63.30;;;;;;5093980;28;19928;-62
2022/10/10 10:56:36;;;;;;;;;;;20.50;63.30;;;;;;5093547;28;19936;-63
2022/10/10 10:59:02;;;;;;;;;;;20.50;63.40;;;;;;5092858;28;20011;-62
2022/10/10 11:01:30;;;;;;;;;;;20.50;63.30;;;;;;5093508;28;20361;-63
2022/10/10 11:04:00;;;;;;;;;;;20.50;63.30;;;;;;5093831;28;19947;-62
2022/10/10 11:06:37;;;;;;;;;;;20.50;63.30;;;;;;5092628;28;19924;-62
2022/10/10 11:09:02;;;;;;;;;;;20.50;63.30;;;;;;5092390;28;19931;-62
2022/10/10 11:11:30;;;;;;;;;;;20.50;63.30;;;;;;5093169;28;20267;-62
2022/10/10 11:13:59;;;;;;;;;;;20.50;63.30;;;;;;5091415;28;20448;-62
2022/10/10 11:16:26;;;;;;;;;;;20.50;64.00;;;;;;5093376;28;19924;-62
2022/10/10 11:19:10;;;;;;;;;;;20.50;63.40;;;;;;5092472;28;19966;-62
2022/10/10 11:21:46;;;;;;;;;;;20.40;63.30;;;;;;5093541;28;19928;-62
2022/10/10 11:24:31;;;;;;;;;;;20.40;63.20;;;;;;5092625;28;19924;-62
2022/10/10 11:26:58;;;;;;;;;;;20.50;63.30;;;;;;5050825;28;19924;-62
2022/10/10 11:29:26;;;;;;;;;;;20.50;63.30;;;;;;5092017;28;19924;-62
2022/10/10 11:31:56;;;;;;;;;;;20.40;63.20;;;;;;5091990;28;19928;-63
2022/10/10 11:34:23;;;;;;;;;;;20.40;63.30;;;;;;5111114;28;21341;-63
2022/10/10 11:36:49;;;;;;;;;;;20.40;63.20;;;;;;5113519;28;20027;-63
2022/10/10 11:39:14;;;;;;;;;;;20.40;63.30;;;;;;5113091;28;19919;-63
2022/10/10 11:41:54;;;;;;;;;;;20.50;63.30;;;;;;5113069;28;19924;-62
2022/10/10 11:44:21;;;;;;;;;;;20.40;63.30;;;;;;5113015;28;19920;-63
2022/10/10 11:46:53;;;;;;;;;;;20.40;63.20;;;;;;5095341;28;19935;-63
2022/10/10 11:49:20;;;;;;;;;;;20.40;63.30;;;;;;5094341;28;19920;-63
2022/10/10 11:51:54;;;;;;;;;;;20.40;63.30;;;;;;5095196;28;20434;-63
2022/10/10 11:54:24;;;;;;;;;;;20.40;63.20;;;;;;5112319;28;19923;-63
2022/10/10 11:56:50;;;;;;;;;;;20.40;63.20;;;;;;5095409;28;19924;-63
2022/10/10 11:59:22;;;;;;;;;;;20.40;63.30;;;;;;5113029;28;20432;-62
2022/10/10 12:01:49;;;;;;;;;;;20.40;63.30;;;;;;5112640;28;19923;-61
2022/10/10 12:04:15;;;;;;;;;;;20.30;63.20;;;;;;5113266;28;19931;-61
2022/10/10 12:06:46;;;;;;;;;;;20.40;63.30;;;;;;5113443;28;19924;-61
2022/10/10 12:09:32;;;;;;;;;;;20.30;63.30;;;;;;5112412;28;19924;-63
2022/10/10 12:12:03;;;;;;;;;;;20.30;63.30;;;;;;5112408;28;20376;-61
2022/10/10 12:14:30;;;;;;;;;;;20.40;63.30;;;;;;5095033;28;19982;-61
2022/10/10 12:16:55;;;;;;;;;;;20.30;63.30;;;;;;5094699;28;19930;-61
2022/10/10 12:19:21;;;;;;;;;;;20.30;63.30;;;;;;5111642;28;20018;-61
2022/10/10 12:21:53;;;;;;;;;;;20.30;63.30;;;;;;5095048;28;19959;-62
2022/10/10 12:24:19;;;;;;;;;;;20.30;63.30;;;;;;5111897;28;19924;-62
2022/10/10 12:26:53;;;;;;;;;;;20.30;63.40;;;;;;5094723;28;20274;-63
2022/10/10 12:29:37;;;;;;;;;;;20.30;63.40;;;;;;5112729;28;19930;-63
2022/10/10 12:32:12;;;;;;;;;;;20.20;63.30;;;;;;5113155;28;19963;-63
2022/10/10 12:34:46;;;;;;;;;;;20.20;63.30;;;;;;5113136;28;19969;-62
2022/10/10 12:37:21;;;;;;;;;;;20.20;63.30;;;;;;5114318;28;20405;-62
2022/10/10 12:39:59;;;;;;;;;;;20.20;63.40;;;;;;5116933;28;19927;-62
2022/10/10 12:42:31;;;;;;;;;;;20.20;63.40;;;;;;5116675;28;19930;-62
2022/10/10 12:44:56;;;;;;;;;;;20.20;63.40;;;;;;5097619;28;20317;-62
2022/10/10 12:47:34;;;;;;;;;;;20.20;63.40;;;;;;5116446;28;19930;-62
2022/10/10 12:50:00;;;;;;;;;;;20.20;63.40;;;;;;5098272;28;20329;-62
2022/10/10 12:52:26;;;;;;;;;;;20.20;63.40;;;;;;5115538;28;19935;-62
2022/10/10 12:54:52;;;;;;;;;;;20.20;63.50;;;;;;5116470;28;19924;-62
2022/10/10 12:57:20;;;;;;;;;;;20.20;63.50;;;;;;5116221;28;19924;-62
2022/10/10 12:59:46;;;;;;;;;;;20.10;63.50;;;;;;5097608;28;19920;-62
2022/10/10 13:02:21;;;;;;;;;;;20.20;63.50;;;;;;5116224;28;20006;-62
2022/10/10 13:04:46;;;;;;;;;;;20.10;63.50;;;;;;5097309;28;20307;-62
2022/10/10 13:07:14;;;;;;;;;;;20.10;63.50;;;;;;5116133;28;19923;-62
2022/10/10 13:09:39;;;;;;;;;;;20.10;63.50;;;;;;5116329;28;20069;-62
2022/10/10 13:12:05;;;;;;;;;;;20.10;63.50;;;;;;5096926;28;20010;-62
2022/10/10 13:14:51;;;;;;;;;;;20.10;63.50;;;;;;5115819;28;19924;-62
2022/10/10 13:17:19;;;;;;;;;;;20.10;63.50;;;;;;5115201;28;19935;-63
2022/10/10 13:19:45;;;;;;;;;;;20.10;63.50;;;;;;5115330;28;19933;-62
2022/10/10 13:22:10;;;;;;;;;;;20.10;63.50;;;;;;5115727;28;20540;-62
2022/10/10 13:24:35;;;;;;;;;;;20.10;63.50;;;;;;5115996;28;19935;-62
2022/10/10 13:27:01;;;;;;;;;;;20.10;63.50;;;;;;5096420;28;20452;-62
2022/10/10 13:29:28;;;;;;;;;;;20.00;63.50;;;;;;5115636;28;19953;-63
2022/10/10 13:31:56;;;;;;;;;;;20.00;63.50;;;;;;5116000;28;19924;-62
2022/10/10 13:34:23;;;;;;;;;;;20.00;63.60;;;;;;5114333;28;20026;-62
2022/10/10 13:36:51;;;;;;;;;;;20.00;63.60;;;;;;5080951;28;20382;-62
2022/10/10 13:39:16;;;;;;;;;;;20.00;63.60;;;;;;5115641;28;19928;-62
2022/10/10 13:41:43;;;;;;;;;;;20.00;63.60;;;;;;5114548;28;19920;-62
2022/10/10 13:44:11;;;;;;;;;;;20.00;63.60;;;;;;5115549;28;19976;-63
2022/10/10 13:46:36;;;;;;;;;;;20.00;63.60;;;;;;5097232;28;19938;-62
2022/10/10 13:49:02;;;;;;;;;;;20.00;63.60;;;;;;5114566;28;20010;-62
2022/10/10 13:51:40;;;;;;;;;;;20.00;63.60;;;;;;5096816;28;19932;-62
2022/10/10 13:54:22;;;;;;;;;;;20.00;63.60;;;;;;5114068;28;20795;-62
2022/10/10 13:56:48;;;;;;;;;;;20.00;63.60;;;;;;5096888;28;19931;-62
2022/10/10 13:59:13;;;;;;;;;;;20.00;63.70;;;;;;5115195;28;19924;-62
2022/10/10 14:01:39;;;;;;;;;;;20.00;63.70;;;;;;5096282;28;19967;-62
2022/10/10 14:04:08;;;;;;;;;;;20.00;63.70;;;;;;5115168;28;19920;-62
2022/10/10 14:06:33;;;;;;;;;;;19.90;63.70;;;;;;5115197;28;19971;-62
2022/10/10 14:09:21;;;;;;;;;;;19.90;63.70;;;;;;5114604;28;19974;-62
2022/10/10 14:11:47;;;;;;;;;;;19.90;63.80;;;;;;5096950;28;19935;-62
2022/10/10 14:14:14;;;;;;;;;;;19.90;63.80;;;;;;5114457;28;19924;-62
2022/10/10 14:16:39;;;;;;;;;;;19.90;63.80;;;;;;5096234;28;20014;-62
2022/10/10 14:19:12;;;;;;;;;;;19.90;63.80;;;;;;5114748;28;19973;-62